Time;durP1;ratioP1;P1;durP2;ratioP2;P2;SDS_P1;SDS_P2;PMS_P1;PMS_P2;Temp;Humidity;BMP_temperature;BMP_pressure;BME280_temperature;BME280_humidity;BME280_pressure;Samples;Min_cycle;Max_cycle;Signal;HPM_P1;HPM_P2
2022/07/12 00:01:04;;;;;;;;;2.33;2.00;;;;;25.74;44.18;101734.13;4979613;28;45217;-65
2022/07/12 00:03:30;;;;;;;;;4.00;3.00;;;;;25.63;43.91;101721.19;4979199;28;45500;-65
2022/07/12 00:05:56;;;;;;;;;2.00;2.00;;;;;25.75;44.73;101741.25;4979215;28;45575;-65
2022/07/12 00:08:22;;;;;;;;;3.00;3.00;;;;;25.72;44.72;101735.41;4977916;28;45478;-66
2022/07/12 00:10:47;;;;;;;;;3.00;3.00;;;;;25.51;44.77;101694.88;4979402;28;45415;-66
2022/07/12 00:13:13;;;;;;;;;4.00;4.00;;;;;25.69;44.31;101725.78;4979202;28;45683;-66
2022/07/12 00:15:38;;;;;;;;;2.00;2.00;;;;;25.70;44.73;101723.91;4979059;28;45374;-65
2022/07/12 00:18:03;;;;;;;;;4.00;3.00;;;;;25.49;44.77;101708.72;4977726;28;45309;-66
2022/07/12 00:20:29;;;;;;;;;2.00;2.00;;;;;25.59;44.49;101730.00;4991453;28;45493;-65
2022/07/12 00:22:55;;;;;;;;;2.67;2.67;;;;;25.16;44.79;101647.13;4998310;28;45809;-65
2022/07/12 00:25:21;;;;;;;;;2.00;2.00;;;;;25.57;44.37;101715.78;4997157;28;45523;-65
2022/07/12 00:27:46;;;;;;;;;2.67;2.67;;;;;24.68;44.76;101581.47;4998568;28;45404;-65
2022/07/12 00:30:12;;;;;;;;;2.00;2.00;;;;;25.17;44.89;101665.13;4998489;28;45318;-65
2022/07/12 00:32:37;;;;;;;;;3.00;3.00;;;;;25.52;44.67;101732.78;4998389;28;45986;-66
2022/07/12 00:35:03;;;;;;;;;2.33;2.33;;;;;24.98;44.88;101657.88;4998414;28;45295;-65
2022/07/12 00:37:28;;;;;;;;;2.67;2.67;;;;;25.37;45.13;101713.16;4998330;28;45216;-65
2022/07/12 00:39:55;;;;;;;;;2.00;2.00;;;;;25.30;45.26;101706.94;4997935;28;45415;-66
2022/07/12 00:42:20;;;;;;;;;4.00;2.33;;;;;24.93;45.28;101663.13;4998004;28;47106;-66
2022/07/12 00:44:45;;;;;;;;;2.00;2.00;;;;;25.34;45.25;101721.78;4998282;28;45561;-66
2022/07/12 00:47:26;;;;;;;;;4.00;2.67;;;;;25.30;45.17;101721.38;4998455;28;45585;-66
2022/07/12 00:49:51;;;;;;;;;3.00;2.00;;;;;25.12;45.20;101697.59;4990560;28;45365;-66
2022/07/12 00:52:17;;;;;;;;;2.00;2.00;;;;;24.77;45.50;101641.88;4978206;28;46372;-65
2022/07/12 00:54:43;;;;;;;;;3.00;3.00;;;;;25.15;46.01;101715.38;4978668;28;45499;-67
2022/07/12 00:57:08;;;;;;;;;3.33;2.67;;;;;25.13;45.92;101721.03;4978663;28;45441;-64
2022/07/12 00:59:34;;;;;;;;;2.33;2.33;;;;;25.12;46.16;101719.38;4977583;28;45616;-66
2022/07/12 01:01:59;;;;;;;;;3.00;3.00;;;;;25.03;46.07;101708.94;4978449;28;46462;-66
2022/07/12 01:04:25;;;;;;;;;4.00;4.00;;;;;24.76;46.16;101675.56;4978296;28;45448;-65
2022/07/12 01:06:51;;;;;;;;;2.67;2.67;;;;;25.04;46.69;101718.81;4978325;28;45313;-66
2022/07/12 01:09:16;;;;;;;;;4.00;3.00;;;;;25.00;46.03;101715.66;4978896;28;45431;-66
2022/07/12 01:11:42;;;;;;;;;3.00;3.00;;;;;24.61;46.29;101645.06;4978152;28;46265;-66
2022/07/12 01:14:08;;;;;;;;;2.67;2.67;;;;;24.82;46.16;101685.56;4978104;28;45313;-66
2022/07/12 01:16:34;;;;;;;;;3.33;2.00;;;;;24.84;46.23;101688.94;4978156;28;45363;-66
2022/07/12 01:19:00;;;;;;;;;2.00;2.00;;;;;25.03;45.98;101720.69;4980964;28;45448;-65
2022/07/12 01:21:31;;;;;;;;;6.00;5.00;;;;;24.93;46.29;101701.22;4997112;28;46263;-66
2022/07/12 01:23:57;;;;;;;;;3.00;3.00;;;;;24.90;46.51;101698.94;4997794;28;45328;-65
2022/07/12 01:26:22;;;;;;;;;3.00;3.00;;;;;25.03;46.74;101723.41;4997834;28;45327;-66
2022/07/12 01:28:48;;;;;;;;;2.33;2.33;;;;;24.99;47.14;101713.97;4996430;28;45540;-66
2022/07/12 01:31:14;;;;;;;;;2.67;2.67;;;;;25.06;46.58;101722.13;4993189;28;46361;-66
2022/07/12 01:33:39;;;;;;;;;3.00;3.00;;;;;25.00;46.37;101701.22;4997504;28;45337;-68
2022/07/12 01:36:05;;;;;;;;;3.00;3.00;;;;;24.97;46.50;101699.72;5012797;28;45359;-64
2022/07/12 01:38:31;;;;;;;;;3.00;3.00;;;;;25.02;46.19;101705.38;4997631;28;45260;-67
2022/07/12 01:40:56;;;;;;;;;4.33;4.00;;;;;24.86;46.88;101690.38;4989097;28;46563;-67
2022/07/12 01:43:21;;;;;;;;;2.67;2.67;;;;;24.84;46.87;101681.59;4989118;28;45803;-67
2022/07/12 01:45:47;;;;;;;;;2.33;2.33;;;;;24.93;47.16;101692.22;4997509;28;45525;-66
2022/07/12 01:48:12;;;;;;;;;2.67;2.67;;;;;24.95;47.17;101701.00;4996280;28;45458;-65
2022/07/12 01:50:38;;;;;;;;;3.00;3.00;;;;;24.96;46.97;101713.56;4996986;28;45533;-67
2022/07/12 01:53:06;;;;;;;;;5.00;4.00;;;;;24.81;46.72;101681.16;4995179;28;45600;-66
2022/07/12 01:55:32;;;;;;;;;2.67;2.67;;;;;24.56;46.59;101643.00;4997276;28;45364;-65
2022/07/12 01:57:57;;;;;;;;;3.00;3.00;;;;;24.97;47.06;101709.78;4997567;28;45289;-66
2022/07/12 02:00:23;;;;;;;;;3.00;2.00;;;;;24.92;47.03;101701.44;4987047;28;46522;-65
2022/07/12 02:02:48;;;;;;;;;4.00;4.00;;;;;24.84;47.18;101703.34;4976202;28;45549;-66
2022/07/12 02:05:14;;;;;;;;;3.00;3.00;;;;;24.84;47.27;101713.41;4976123;28;45345;-66
2022/07/12 02:07:40;;;;;;;;;3.00;3.00;;;;;24.75;47.10;101704.63;4977839;28;45471;-66
2022/07/12 02:10:07;;;;;;;;;3.33;3.33;;;;;24.67;47.21;101701.31;4977233;28;47513;-65
2022/07/12 02:12:33;;;;;;;;;4.00;4.00;;;;;24.72;46.98;101704.22;4977207;28;45276;-66
2022/07/12 02:14:58;;;;;;;;;2.33;2.33;;;;;24.70;47.66;101700.88;4977581;28;45213;-66
2022/07/12 02:17:23;;;;;;;;;3.00;3.00;;;;;24.61;47.32;101716.59;4977473;28;45559;-66
2022/07/12 02:19:49;;;;;;;;;4.00;4.00;;;;;24.57;47.58;101710.75;4977225;28;46247;-66
2022/07/12 02:22:14;;;;;;;;;4.00;4.00;;;;;24.39;47.83;101686.09;4977271;28;45230;-66
2022/07/12 02:24:39;;;;;;;;;3.33;3.33;;;;;23.74;47.80;101592.75;4977381;28;45806;-65
2022/07/12 02:27:06;;;;;;;;;3.00;2.67;;;;;24.47;47.86;101695.94;4977572;28;45383;-65
2022/07/12 02:29:32;;;;;;;;;5.67;4.00;;;;;24.55;47.84;101712.84;4981010;28;46402;-66
2022/07/12 02:31:57;;;;;;;;;3.00;3.00;;;;;24.55;47.67;101707.41;4987702;28;45549;-65
2022/07/12 02:34:22;;;;;;;;;3.00;3.00;;;;;24.51;47.76;101706.16;4977280;28;45551;-66
2022/07/12 02:36:48;;;;;;;;;2.33;2.33;;;;;23.96;47.76;101624.06;4977341;28;45503;-65
2022/07/12 02:39:13;;;;;;;;;2.67;2.67;;;;;24.51;47.56;101710.78;4977122;28;45955;-67
2022/07/12 02:41:38;;;;;;;;;2.67;2.67;;;;;24.54;47.94;101718.50;4976886;28;45363;-67
2022/07/12 02:44:04;;;;;;;;;4.00;3.00;;;;;24.40;47.74;101693.22;4977132;28;45535;-64
2022/07/12 02:46:29;;;;;;;;;3.00;3.00;;;;;24.54;48.05;101711.19;4977125;28;45510;-66
2022/07/12 02:48:55;;;;;;;;;5.33;5.00;;;;;24.55;48.17;101706.56;4976900;28;46438;-65
2022/07/12 02:51:20;;;;;;;;;6.00;4.00;;;;;24.44;47.79;101701.81;4976872;28;45416;-65
2022/07/12 02:53:46;;;;;;;;;5.33;3.33;;;;;24.54;47.48;101722.06;4977353;28;45276;-65
2022/07/12 02:56:11;;;;;;;;;4.00;4.00;;;;;24.41;47.49;101703.03;4977477;28;45163;-66
2022/07/12 02:58:37;;;;;;;;;4.33;4.33;;;;;24.44;47.84;101713.50;4976922;28;45711;-65
2022/07/12 03:01:03;;;;;;;;;3.00;3.00;;;;;24.29;48.10;101685.72;4990814;28;46774;-66
2022/07/12 03:03:28;;;;;;;;;5.00;5.00;;;;;24.27;47.81;101693.22;4998102;28;45213;-65
2022/07/12 03:05:54;;;;;;;;;3.00;3.00;;;;;24.19;47.61;101667.09;5000169;28;45237;-65
2022/07/12 03:08:19;;;;;;;;;3.00;3.00;;;;;24.53;47.73;101731.25;4999557;28;46597;-65
2022/07/12 03:10:45;;;;;;;;;2.67;2.67;;;;;24.47;47.72;101714.97;5014859;28;45493;-65
2022/07/12 03:13:10;;;;;;;;;3.33;3.33;;;;;24.08;47.71;101664.19;4999879;28;45162;-67
2022/07/12 03:15:35;;;;;;;;;4.00;4.00;;;;;24.16;47.84;101685.69;5000121;28;45408;-66
2022/07/12 03:18:01;;;;;;;;;4.67;4.00;;;;;24.46;47.54;101729.59;4999586;28;46944;-65
2022/07/12 03:20:28;;;;;;;;;6.00;5.00;;;;;24.47;47.69;101737.56;4999378;28;45396;-65
2022/07/12 03:22:54;;;;;;;;;5.33;4.67;;;;;24.35;47.83;101713.94;4999596;28;45546;-65
2022/07/12 03:25:20;;;;;;;;;3.67;3.67;;;;;24.45;48.03;101739.66;4999743;28;45506;-65
2022/07/12 03:27:46;;;;;;;;;3.33;3.33;;;;;24.44;47.87;101731.72;4999523;28;45636;-66
2022/07/12 03:30:12;;;;;;;;;6.00;6.00;;;;;24.39;48.30;101724.16;4986825;28;45463;-65
2022/07/12 03:32:37;;;;;;;;;4.33;4.00;;;;;24.38;48.33;101725.22;4979631;28;45639;-65
2022/07/12 03:35:03;;;;;;;;;3.00;3.00;;;;;24.41;47.54;101732.94;4994817;28;45534;-66
2022/07/12 03:37:43;;;;;;;;;5.00;4.00;;;;;24.35;48.08;101732.94;4979573;28;46500;-66
2022/07/12 03:40:10;;;;;;;;;3.67;3.67;;;;;24.20;48.15;101703.25;4979638;28;45432;-67
2022/07/12 03:42:35;;;;;;;;;4.33;4.33;;;;;24.19;47.88;101709.72;4979267;28;45331;-66
2022/07/12 03:45:01;;;;;;;;;4.00;4.00;;;;;24.26;48.16;101729.59;4979994;28;45300;-66
2022/07/12 03:47:26;;;;;;;;;3.00;3.00;;;;;24.17;48.24;101719.97;4978097;28;46543;-66
2022/07/12 03:49:52;;;;;;;;;5.33;5.00;;;;;24.27;48.00;101734.00;4979434;28;45291;-64
2022/07/12 03:52:17;;;;;;;;;6.33;3.33;;;;;23.91;47.76;101678.19;4979484;28;45309;-66
2022/07/12 03:54:42;;;;;;;;;3.67;3.67;;;;;24.24;48.13;101731.69;4979658;28;45399;-66
2022/07/12 03:57:13;;;;;;;;;3.33;3.33;;;;;24.14;48.09;101725.84;4979173;28;46505;-66
2022/07/12 03:59:40;;;;;;;;;3.67;3.67;;;;;24.22;47.92;101740.03;4985230;28;45523;-65
2022/07/12 04:02:05;;;;;;;;;3.33;3.33;;;;;24.20;48.19;101747.56;4999042;28;45510;-65
2022/07/12 04:04:30;;;;;;;;;3.67;3.67;;;;;24.10;48.02;101736.28;4999277;28;45319;-66
2022/07/12 04:06:56;;;;;;;;;4.00;4.00;;;;;23.71;48.18;101680.06;4998696;28;46825;-66
2022/07/12 04:09:21;;;;;;;;;5.00;4.00;;;;;24.12;48.05;101755.94;4997373;28;46039;-65
2022/07/12 04:11:46;;;;;;;;;5.00;5.00;;;;;23.72;48.63;101684.47;4998581;28;45543;-65
2022/07/12 04:14:12;;;;;;;;;4.00;4.00;;;;;24.02;48.26;101743.78;4998235;28;45223;-65
2022/07/12 04:16:37;;;;;;;;;5.67;5.00;;;;;23.80;48.69;101708.69;4998255;28;47551;-65
2022/07/12 04:19:04;;;;;;;;;5.00;5.00;;;;;24.08;48.44;101756.56;4998467;28;45257;-66
2022/07/12 04:21:30;;;;;;;;;3.00;3.00;;;;;24.04;48.49;101747.16;4998763;28;45253;-65
2022/07/12 04:23:56;;;;;;;;;5.00;5.00;;;;;24.05;48.57;101762.41;4998620;28;45407;-65
2022/07/12 04:26:21;;;;;;;;;4.00;4.00;;;;;24.03;48.69;101757.19;5013910;28;51187;-65
2022/07/12 04:28:47;;;;;;;;;6.00;5.00;;;;;24.03;48.33;101756.31;4998353;28;45370;-65
2022/07/12 04:31:12;;;;;;;;;5.33;4.67;;;;;24.10;48.20;101768.06;4977837;28;45329;-66
2022/07/12 04:33:37;;;;;;;;;5.67;5.67;;;;;24.00;48.34;101745.88;4978574;28;45204;-65
2022/07/12 04:36:03;;;;;;;;;4.00;4.00;;;;;23.88;48.18;101727.50;4979405;28;46608;-65
2022/07/12 04:38:28;;;;;;;;;5.00;5.00;;;;;24.12;48.66;101766.81;4977500;28;45297;-65
2022/07/12 04:40:53;;;;;;;;;6.00;5.00;;;;;23.00;48.69;101582.03;4978419;28;45343;-65
2022/07/12 04:43:19;;;;;;;;;5.67;5.33;;;;;24.00;48.71;101749.44;4978483;28;45283;-65
2022/07/12 04:45:44;;;;;;;;;4.67;4.67;;;;;23.78;48.89;101724.34;4978594;28;46262;-66
2022/07/12 04:48:10;;;;;;;;;5.00;5.00;;;;;24.02;48.72;101763.66;4978465;28;45532;-64
2022/07/12 04:50:36;;;;;;;;;3.00;3.00;;;;;24.03;48.63;101772.63;4977035;28;45362;-66
2022/07/12 04:53:02;;;;;;;;;5.67;5.00;;;;;24.02;48.39;101766.34;4978298;28;45202;-65
2022/07/12 04:55:27;;;;;;;;;6.00;4.00;;;;;23.76;48.68;101740.03;4978131;28;46441;-66
2022/07/12 04:57:53;;;;;;;;;5.00;3.67;;;;;23.92;48.59;101774.94;4978298;28;45554;-67
2022/07/12 05:00:18;;;;;;;;;4.33;4.33;;;;;23.88;49.04;101770.97;4976920;28;45678;-66
2022/07/12 05:02:43;;;;;;;;;4.00;4.00;;;;;23.95;49.10;101771.78;4978329;28;45151;-66
2022/07/12 05:05:09;;;;;;;;;6.00;5.00;;;;;23.48;48.43;101687.75;4988080;28;46621;-65
2022/07/12 05:07:34;;;;;;;;;5.00;4.67;;;;;24.01;49.05;101774.72;4996496;28;45424;-65
2022/07/12 05:10:00;;;;;;;;;3.33;3.33;;;;;23.92;48.83;101765.94;4997875;28;45467;-65
2022/07/12 05:12:25;;;;;;;;;5.00;5.00;;;;;23.89;48.44;101767.22;4997800;28;45389;-66
2022/07/12 05:14:50;;;;;;;;;4.00;4.00;;;;;23.99;48.80;101788.50;4997396;28;46467;-65
2022/07/12 05:17:16;;;;;;;;;4.33;4.33;;;;;23.97;48.50;101790.59;4997494;28;45491;-66
2022/07/12 05:19:41;;;;;;;;;4.33;4.33;;;;;24.02;48.27;101796.25;4996453;28;45398;-67
2022/07/12 05:22:07;;;;;;;;;6.00;6.00;;;;;24.03;48.70;101797.06;4997433;28;45422;-64
2022/07/12 05:24:32;;;;;;;;;5.00;5.00;;;;;23.97;48.75;101799.59;4997335;28;45908;-67
2022/07/12 05:26:57;;;;;;;;;7.00;7.00;;;;;23.92;48.49;101802.09;4991327;28;45399;-65
2022/07/12 05:29:23;;;;;;;;;7.33;5.67;;;;;23.97;48.93;101799.59;4976788;28;47239;-66
2022/07/12 05:31:48;;;;;;;;;7.00;5.00;;;;;23.95;48.90;101795.41;4977750;28;45294;-67
2022/07/12 05:34:13;;;;;;;;;5.00;5.00;;;;;23.92;48.73;101788.50;4977722;28;46024;-65
2022/07/12 05:36:39;;;;;;;;;5.00;4.67;;;;;23.72;48.95;101755.06;4976882;28;45554;-66
2022/07/12 05:39:04;;;;;;;;;6.00;6.00;;;;;24.09;48.99;101820.72;4977706;28;45592;-65
2022/07/12 05:41:30;;;;;;;;;8.00;6.67;;;;;23.97;48.67;101796.88;4987885;28;45458;-65
2022/07/12 05:43:55;;;;;;;;;4.00;4.00;;;;;23.97;48.13;101788.72;4976961;28;46694;-65
2022/07/12 05:46:21;;;;;;;;;5.67;4.33;;;;;24.18;48.68;101814.03;4977255;28;45464;-66
2022/07/12 05:48:46;;;;;;;;;5.00;5.00;;;;;24.21;48.08;101819.03;4994908;28;45318;-66
2022/07/12 05:53:55;;;;;;;;;5.33;5.33;;;;;24.26;48.25;101820.13;4991674;28;45797;-68
2022/07/12 05:56:21;;;;;;;;;6.33;6.33;;;;;24.08;48.66;101794.59;4975996;28;45688;-65
2022/07/12 05:58:46;;;;;;;;;6.00;6.00;;;;;23.96;48.31;101772.63;4977420;28;45262;-66
2022/07/12 06:01:12;;;;;;;;;7.33;7.00;;;;;24.18;48.13;101801.28;4977666;28;45294;-66
2022/07/12 06:03:37;;;;;;;;;7.00;7.00;;;;;24.32;48.13;101826.63;4976499;28;45909;-66
2022/07/12 06:06:03;;;;;;;;;4.67;4.67;;;;;24.43;48.46;101839.59;4986404;28;45435;-66
2022/07/12 06:08:28;;;;;;;;;6.00;6.00;;;;;24.65;47.68;101825.78;4977505;28;45490;-65
2022/07/12 06:10:54;;;;;;;;;7.00;7.00;;;;;24.86;47.26;101829.09;4977471;28;45451;-67
2022/07/12 06:13:19;;;;;;;;;7.00;7.00;;;;;25.13;46.52;101838.06;4977076;28;45466;-66
2022/07/12 06:15:44;;;;;;;;;6.00;6.00;;;;;25.31;46.02;101822.94;4976901;28;47736;-65
2022/07/12 06:18:10;;;;;;;;;7.00;7.00;;;;;25.59;45.67;101828.88;4989784;28;45826;-67
2022/07/12 06:20:35;;;;;;;;;7.00;7.00;;;;;25.05;45.13;101691.38;4996799;28;45411;-65
2022/07/12 06:23:03;;;;;;;;;6.00;5.67;;;;;26.23;44.43;101841.53;4991845;28;45533;-66
2022/07/12 06:25:29;;;;;;;;;7.67;7.00;;;;;26.58;43.41;101843.78;4995184;28;45480;-67
2022/07/12 06:27:54;;;;;;;;;8.00;8.00;;;;;26.54;43.34;101793.47;4996840;28;45375;-65
2022/07/12 06:30:21;;;;;;;;;6.33;6.00;;;;;26.98;42.74;101825.97;4996401;28;45324;-66
2022/07/12 06:32:47;;;;;;;;;6.67;5.67;;;;;27.33;42.63;101847.22;4996481;28;45509;-66
2022/07/12 06:35:14;;;;;;;;;6.00;6.00;;;;;27.52;41.57;101828.94;4996609;28;45474;-65
2022/07/12 06:37:40;;;;;;;;;5.00;5.00;;;;;27.80;40.47;101845.59;4997019;28;45227;-67
2022/07/12 06:40:06;;;;;;;;;6.67;6.67;;;;;27.91;40.51;101832.22;5000285;28;45560;-68
2022/07/12 06:42:32;;;;;;;;;6.00;6.00;;;;;28.08;40.15;101828.59;4999573;28;46694;-68
2022/07/12 06:44:57;;;;;;;;;7.33;6.33;;;;;28.18;39.53;101817.88;4999767;28;45445;-66
2022/07/12 06:47:23;;;;;;;;;7.00;7.00;;;;;28.44;38.98;101835.00;4999687;28;45509;-68
2022/07/12 06:49:48;;;;;;;;;7.33;7.00;;;;;28.46;39.39;101841.06;5000006;28;45558;-66
2022/07/12 06:52:14;;;;;;;;;10.33;9.00;;;;;28.40;39.00;101833.78;4998208;28;47346;-67
2022/07/12 06:54:40;;;;;;;;;6.00;6.00;;;;;28.30;38.83;101830.81;4999813;28;45297;-66
2022/07/12 06:57:05;;;;;;;;;7.67;7.67;;;;;28.47;39.55;101849.03;4982104;28;45752;-67
2022/07/12 06:59:31;;;;;;;;;6.67;5.00;;;;;28.47;39.29;101826.31;4980486;28;45543;-67
2022/07/12 07:01:57;;;;;;;;;7.67;5.00;;;;;28.61;39.07;101841.41;4979982;28;46346;-67
2022/07/12 07:04:23;;;;;;;;;7.00;7.00;;;;;28.70;38.64;101845.47;4980225;28;45440;-67
2022/07/12 07:06:48;;;;;;;;;7.00;6.33;;;;;28.79;38.63;101852.22;4979567;28;45292;-66
2022/07/12 07:09:14;;;;;;;;;7.33;7.33;;;;;28.97;38.61;101850.47;4980151;28;45607;-67
2022/07/12 07:11:40;;;;;;;;;6.33;6.00;;;;;29.16;38.47;101840.22;4979566;28;46008;-66
2022/07/12 07:14:05;;;;;;;;;7.00;7.00;;;;;29.14;38.30;101815.81;4979795;28;45292;-66
2022/07/12 07:16:31;;;;;;;;;7.33;7.33;;;;;29.41;38.14;101827.03;4979745;28;45584;-67
2022/07/12 07:18:56;;;;;;;;;8.67;8.67;;;;;29.24;37.80;101764.00;4979887;28;45499;-66
2022/07/12 07:21:21;;;;;;;;;8.00;8.00;;;;;29.88;36.68;101843.34;4979825;28;46741;-66
2022/07/12 07:23:47;;;;;;;;;5.00;5.00;;;;;29.99;36.52;101848.75;4979793;28;45515;-67
2022/07/12 07:26:13;;;;;;;;;10.33;7.67;;;;;29.94;36.42;101831.38;4980106;28;45395;-66
2022/07/12 07:30:51;;;;;;;;;6.00;5.00;;;;;30.18;36.32;101856.78;4979858;28;45361;-66
2022/07/12 07:31:24;;;;;;;;;6.00;6.00;;;;;30.14;36.53;101822.72;4990446;28;45522;-66
2022/07/12 07:33:49;;;;;;;;;6.67;6.67;;;;;30.37;36.14;101833.53;4979533;28;45448;-66
2022/07/12 07:36:15;;;;;;;;;10.00;8.00;;;;;30.52;35.26;101846.66;4999330;28;45454;-67
2022/07/12 07:38:40;;;;;;;;;8.00;8.00;;;;;30.48;35.17;101843.59;4999648;28;45360;-67
2022/07/12 07:41:06;;;;;;;;;6.67;6.67;;;;;30.48;35.47;101846.34;4999043;28;46196;-66
2022/07/12 07:43:31;;;;;;;;;6.00;6.00;;;;;30.48;35.65;101835.38;4998948;28;45469;-67
2022/07/12 07:45:56;;;;;;;;;7.33;7.33;;;;;30.69;35.08;101857.69;4978735;28;45620;-69
2022/07/12 07:48:22;;;;;;;;;8.67;7.67;;;;;30.76;35.24;101844.59;4988085;28;45471;-65
2022/07/12 07:50:47;;;;;;;;;8.00;6.67;;;;;30.90;34.41;101856.06;4983819;28;45576;-66
2022/07/12 07:53:14;;;;;;;;;7.67;7.67;;;;;30.45;34.05;101767.28;4977825;28;45631;-68
2022/07/12 07:55:39;;;;;;;;;6.33;6.33;;;;;30.98;34.54;101842.72;4978932;28;45605;-67
2022/07/12 07:58:05;;;;;;;;;6.33;5.33;;;;;31.10;34.48;101851.69;4988111;28;45788;-69
2022/07/12 08:00:30;;;;;;;;;9.33;9.33;;;;;31.07;34.22;101834.88;4976599;28;45522;-68
2022/07/12 08:02:56;;;;;;;;;8.00;8.00;;;;;31.24;33.26;101859.59;4987650;28;45945;-67
2022/07/12 08:05:21;;;;;;;;;8.33;8.33;;;;;31.28;33.49;101868.97;4989676;28;46036;-67
2022/07/12 08:07:46;;;;;;;;;6.00;6.00;;;;;31.30;33.33;101842.06;4981456;28;45356;-67
2022/07/12 08:10:12;;;;;;;;;11.33;9.00;;;;;31.28;33.54;101828.59;4996686;28;45507;-67
2022/07/12 08:12:37;;;;;;;;;8.33;8.33;;;;;31.55;33.30;101861.63;4998263;28;45649;-66
2022/07/12 08:15:03;;;;;;;;;5.33;4.00;;;;;31.75;33.76;101861.06;4998732;28;45586;-67
2022/07/12 08:17:28;;;;;;;;;10.33;7.00;;;;;31.93;32.63;101859.88;4998553;28;45601;-67
2022/07/12 08:19:54;;;;;;;;;6.00;6.00;;;;;31.94;32.90;101856.03;4998497;28;46752;-68
2022/07/12 08:22:19;;;;;;;;;6.67;6.67;;;;;31.96;32.27;101849.16;4996990;28;45533;-67
2022/07/12 08:24:44;;;;;;;;;9.67;7.67;;;;;32.21;32.61;101856.00;4998872;28;45332;-67
2022/07/12 08:27:12;;;;;;;;;6.00;6.00;;;;;32.30;31.77;101860.81;4997304;28;45490;-70
2022/07/12 08:29:37;;;;;;;;;9.33;7.00;;;;;32.53;31.19;101858.78;4998064;28;45693;-67
2022/07/12 08:32:03;;;;;;;;;5.00;5.00;;;;;32.60;31.64;101864.88;4997671;28;45217;-68
2022/07/12 08:34:29;;;;;;;;;6.00;6.00;;;;;32.82;31.56;101871.13;4996320;28;45380;-69
2022/07/12 08:36:57;;;;;;;;;6.00;6.00;;;;;32.97;31.85;101854.69;4990735;28;45364;-67
2022/07/12 08:39:22;;;;;;;;;8.00;6.00;;;;;33.26;30.68;101859.81;4997471;28;47708;-66
2022/07/12 08:41:48;;;;;;;;;6.00;6.00;;;;;33.36;30.35;101848.00;4982446;28;45436;-69
2022/07/12 08:44:13;;;;;;;;;7.00;7.00;;;;;33.62;29.97;101848.91;4978624;28;45341;-66
2022/07/12 08:46:39;;;;;;;;;6.33;6.33;;;;;33.91;28.82;101852.06;4980177;28;45365;-68
2022/07/12 08:49:09;;;;;;;;;7.00;5.67;;;;;34.26;28.85;101852.09;4980358;28;46206;-70
2022/07/12 08:51:36;;;;;;;;;5.67;5.33;;;;;34.43;28.50;101838.84;4984486;28;45427;-68
2022/07/12 08:54:13;;;;;;;;;7.00;5.00;;;;;34.75;28.04;101857.03;4977828;28;45356;-69
2022/07/12 08:56:43;;;;;;;;;6.00;6.00;;;;;34.90;26.93;101834.13;4978626;28;45399;-69
2022/07/12 08:59:21;;;;;;;;;5.33;5.33;;;;;34.36;26.93;101721.53;4995780;28;48735;-72
2022/07/12 09:01:52;;;;;;;;;6.33;5.00;;;;;35.35;26.57;101861.63;4975299;28;45595;-66
2022/07/12 09:04:19;;;;;;;;;6.00;5.33;;;;;34.49;26.71;101681.47;4995786;28;45376;-69
2022/07/12 09:06:45;;;;;;;;;7.33;6.00;;;;;35.42;26.28;101775.56;4992771;28;45432;-68
2022/07/12 09:09:25;;;;;;;;;4.00;3.00;;;;;36.30;25.23;101860.47;4986883;28;46351;-70
2022/07/12 09:11:53;;;;;;;;;4.00;4.00;;;;;36.41;24.69;101831.59;4991567;28;45427;-68
2022/07/12 09:14:20;;;;;;;;;4.67;4.67;;;;;36.56;24.50;101831.44;4977984;28;45264;-67
2022/07/12 09:17:03;;;;;;;;;3.67;3.33;;;;;36.95;23.73;101849.09;4990977;28;45600;-70
2022/07/12 09:19:29;;;;;;;;;3.33;3.33;;;;;37.29;23.41;101848.97;4996348;28;45843;-71
2022/07/12 09:21:55;;;;;;;;;3.00;3.00;;;;;37.37;23.73;101823.34;4982708;28;45416;-67
2022/07/12 09:24:24;;;;;;;;;3.67;3.67;;;;;37.88;23.25;101850.38;4976062;28;45431;-65
2022/07/12 09:26:56;;;;;;;;;4.33;3.00;;;;;38.18;22.01;101851.88;4986718;28;45328;-69
2022/07/12 09:29:21;;;;;;;;;8.67;8.67;;;;;38.26;22.32;101835.34;4997030;28;46587;-68
2022/07/12 09:37:20;;;;;;;;;5.67;5.67;;;;;39.43;21.26;101851.69;4977728;28;45538;-67
2022/07/12 09:39:47;;;;;;;;;7.67;6.33;;;;;39.64;20.77;101838.19;4975784;28;45875;-68
2022/07/12 09:42:13;;;;;;;;;4.00;4.00;;;;;40.12;20.27;101858.75;4975356;28;45491;-68
2022/07/12 09:44:39;;;;;;;;;4.00;4.00;;;;;40.53;20.12;101862.50;4976899;28;45199;-68
2022/07/12 09:47:15;;;;;;;;;5.00;4.33;;;;;40.74;19.35;101852.41;4979061;28;45171;-68
2022/07/12 09:49:45;;;;;;;;;7.00;6.00;;;;;40.55;19.20;101838.72;4978560;28;47847;-67
2022/07/12 09:52:12;;;;;;;;;2.33;2.33;;;;;40.43;18.76;101852.41;4989374;28;45510;-67
2022/07/12 09:54:41;;;;;;;;;4.67;4.67;;;;;40.30;19.20;101856.09;4982055;28;45502;-68
2022/07/12 09:57:17;;;;;;;;;2.00;2.00;;;;;39.48;19.05;101799.56;4975483;28;45460;-72
2022/07/12 09:59:43;;;;;;;;;4.00;4.00;;;;;38.96;18.90;101787.06;4977404;28;46031;-69
2022/07/12 10:02:15;;;;;;;;;1.67;1.00;;;;;38.94;19.36;101865.22;4991748;28;45526;-67
2022/07/12 10:04:46;;;;;;;;;2.00;2.00;;;;;38.49;19.66;101861.34;4977426;28;45271;-71
2022/07/12 10:07:16;;;;;;;;;3.00;3.00;;;;;37.99;20.12;101852.69;4987032;28;45577;-68
2022/07/12 10:09:43;;;;;;;;;4.00;2.67;;;;;37.22;21.18;101807.69;4990588;28;47545;-66
2022/07/12 10:12:10;;;;;;;;;5.67;5.67;;;;;37.10;22.03;101871.91;4993665;28;46234;-71
2022/07/12 10:14:38;;;;;;;;;6.00;6.00;;;;;36.65;21.94;101855.75;5001416;28;45584;-68
2022/07/12 10:17:09;;;;;;;;;3.67;3.33;;;;;36.38;22.18;101870.94;4977151;28;45233;-68
2022/07/12 10:19:36;;;;;;;;;4.00;4.00;;;;;35.91;22.24;101850.25;4980540;28;47348;-67
2022/07/12 10:22:06;;;;;;;;;23.00;17.67;;;;;35.64;22.47;101847.06;4977374;28;45497;-67
2022/07/12 10:24:34;;;;;;;;;6.33;5.00;;;;;35.41;22.66;101864.34;4983690;28;45443;-67
2022/07/12 10:27:20;;;;;;;;;5.00;5.00;;;;;35.09;23.78;101864.72;4996674;28;45270;-66
2022/07/12 10:29:48;;;;;;;;;3.33;3.33;;;;;34.82;23.33;101857.56;4976200;28;47731;-67
2022/07/12 10:32:21;;;;;;;;;4.00;4.00;;;;;34.32;23.51;101826.13;4976366;28;45270;-67
2022/07/12 10:34:59;;;;;;;;;2.33;2.33;;;;;34.26;23.51;101859.56;4984925;28;45549;-66
2022/07/12 10:37:25;;;;;;;;;4.00;4.00;;;;;33.81;25.17;101836.28;5008616;28;45254;-67
2022/07/12 10:40:12;;;;;;;;;5.00;5.00;;;;;33.59;24.55;101861.31;4976505;28;46076;-67
2022/07/12 10:42:38;;;;;;;;;5.67;4.33;;;;;33.08;25.30;101818.94;4974332;28;45317;-67
2022/07/12 10:45:13;;;;;;;;;4.67;4.00;;;;;32.95;25.34;101848.63;4975036;28;45653;-68
2022/07/12 10:48:00;;;;;;;;;3.67;3.67;;;;;32.72;25.72;101832.47;4975521;28;45329;-66
2022/07/12 10:50:55;;;;;;;;;4.00;4.00;;;;;32.72;23.60;101850.94;4963437;28;46038;-66
2022/07/12 10:53:38;;;;;;;;;4.67;3.33;;;;;32.52;24.37;101857.94;4985019;28;45440;-67
2022/07/12 10:56:06;;;;;;;;;3.00;3.00;;;;;32.40;24.46;101853.72;4971754;28;45335;-66
2022/07/12 10:58:55;;;;;;;;;3.00;3.00;;;;;32.22;24.49;101858.47;4974312;28;45300;-67
2022/07/12 11:01:30;;;;;;;;;4.67;4.67;;;;;32.12;24.73;101860.31;4976176;28;45636;-68
2022/07/12 11:04:07;;;;;;;;;4.00;3.00;;;;;31.97;25.67;101853.56;4988909;28;45499;-71
2022/07/12 11:06:36;;;;;;;;;3.67;3.00;;;;;31.97;25.95;101861.81;4980220;28;45488;-71
2022/07/12 11:09:05;;;;;;;;;4.00;4.00;;;;;31.93;26.20;101849.69;4980318;28;45446;-66
2022/07/12 11:11:30;;;;;;;;;4.00;4.00;;;;;31.87;26.60;101845.25;5007554;28;47891;-67
2022/07/12 11:13:57;;;;;;;;;6.33;5.00;;;;;31.85;26.65;101846.59;4976201;28;45360;-66
2022/07/12 11:16:24;;;;;;;;;4.00;4.00;;;;;31.76;25.78;101838.78;4975004;28;45306;-69
2022/07/12 11:18:50;;;;;;;;;4.00;4.00;;;;;31.72;24.69;101845.06;4975336;28;45629;-67
2022/07/12 11:21:16;;;;;;;;;3.67;3.67;;;;;31.61;24.92;101849.59;4975918;28;45993;-67
2022/07/12 11:23:42;;;;;;;;;3.67;3.67;;;;;31.31;25.43;101841.81;4976763;28;45324;-67
2022/07/12 11:26:09;;;;;;;;;5.00;5.00;;;;;31.27;25.25;101839.84;4977452;28;45542;-68
2022/07/12 11:28:34;;;;;;;;;4.67;4.67;;;;;31.27;26.34;101856.34;4978354;28;45333;-67
2022/07/12 11:31:08;;;;;;;;;4.33;4.33;;;;;31.25;26.23;101848.34;4978142;28;47203;-66